sensor_id;sensor_type;location;lat;lon;timestamp;temperature;humidity
11846;DHT22;5982;37.494;-8.758;2022-11-12T00:00:02;14.50;99.90
11846;DHT22;5982;37.494;-8.758;2022-11-12T00:02:32;14.60;99.90
11846;DHT22;5982;37.494;-8.758;2022-11-12T00:05:00;14.50;99.90
11846;DHT22;5982;37.494;-8.758;2022-11-12T00:07:27;14.60;99.90
11846;DHT22;5982;37.494;-8.758;2022-11-12T00:09:55;14.60;99.90
11846;DHT22;5982;37.494;-8.758;2022-11-12T00:12:23;14.60;99.90
11846;DHT22;5982;37.494;-8.758;2022-11-12T00:14:51;14.60;99.90
11846;DHT22;5982;37.494;-8.758;2022-11-12T00:17:18;14.50;99.90
11846;DHT22;5982;37.494;-8.758;2022-11-12T00:19:48;14.40;99.90
11846;DHT22;5982;37.494;-8.758;2022-11-12T00:22:15;14.40;99.90
11846;DHT22;5982;37.494;-8.758;2022-11-12T00:24:43;14.40;99.90
11846;DHT22;5982;37.494;-8.758;2022-11-12T00:27:11;14.40;99.90
11846;DHT22;5982;37.494;-8.758;2022-11-12T00:29:39;14.40;99.90
11846;DHT22;5982;37.494;-8.758;2022-11-12T00:32:07;14.40;99.90
11846;DHT22;5982;37.494;-8.758;2022-11-12T00:34:35;14.50;99.90
11846;DHT22;5982;37.494;-8.758;2022-11-12T00:37:04;14.50;99.90
11846;DHT22;5982;37.494;-8.758;2022-11-12T00:39:32;14.50;99.90
11846;DHT22;5982;37.494;-8.758;2022-11-12T00:42:00;14.40;99.90
11846;DHT22;5982;37.494;-8.758;2022-11-12T00:44:28;14.40;99.90
11846;DHT22;5982;37.494;-8.758;2022-11-12T00:46:56;14.30;99.90
11846;DHT22;5982;37.494;-8.758;2022-11-12T00:49:23;14.30;99.90
11846;DHT22;5982;37.494;-8.758;2022-11-12T00:51:51;14.20;99.90
11846;DHT22;5982;37.494;-8.758;2022-11-12T00:54:20;14.20;99.90
11846;DHT22;5982;37.494;-8.758;2022-11-12T00:56:48;14.20;99.90
11846;DHT22;5982;37.494;-8.758;2022-11-12T00:59:16;14.20;99.90
11846;DHT22;5982;37.494;-8.758;2022-11-12T01:01:44;14.20;99.90
11846;DHT22;5982;37.494;-8.758;2022-11-12T01:04:12;14.10;99.90
11846;DHT22;5982;37.494;-8.758;2022-11-12T01:06:40;14.10;99.90
11846;DHT22;5982;37.494;-8.758;2022-11-12T01:09:08;14.10;99.90
11846;DHT22;5982;37.494;-8.758;2022-11-12T01:11:39;14.20;99.90
11846;DHT22;5982;37.494;-8.758;2022-11-12T01:14:07;14.20;99.90
11846;DHT22;5982;37.494;-8.758;2022-11-12T01:16:36;14.30;99.90
11846;DHT22;5982;37.494;-8.758;2022-11-12T01:19:07;14.20;99.90
11846;DHT22;5982;37.494;-8.758;2022-11-12T01:21:37;14.20;99.90
11846;DHT22;5982;37.494;-8.758;2022-11-12T01:24:06;14.20;99.90
11846;DHT22;5982;37.494;-8.758;2022-11-12T01:26:34;14.10;99.90
11846;DHT22;5982;37.494;-8.758;2022-11-12T01:29:04;14.00;99.90
11846;DHT22;5982;37.494;-8.758;2022-11-12T01:31:32;14.00;99.90
11846;DHT22;5982;37.494;-8.758;2022-11-12T01:34:01;14.00;99.90
11846;DHT22;5982;37.494;-8.758;2022-11-12T01:36:31;14.10;99.90
11846;DHT22;5982;37.494;-8.758;2022-11-12T01:39:00;14.10;99.90
11846;DHT22;5982;37.494;-8.758;2022-11-12T01:41:29;14.10;99.90
11846;DHT22;5982;37.494;-8.758;2022-11-12T01:44:11;14.00;99.90
11846;DHT22;5982;37.494;-8.758;2022-11-12T01:46:42;14.00;99.90
11846;DHT22;5982;37.494;-8.758;2022-11-12T01:49:23;13.90;99.90
11846;DHT22;5982;37.494;-8.758;2022-11-12T01:51:54;14.00;99.90
11846;DHT22;5982;37.494;-8.758;2022-11-12T01:54:24;13.90;99.90
11846;DHT22;5982;37.494;-8.758;2022-11-12T01:56:52;13.80;99.90
11846;DHT22;5982;37.494;-8.758;2022-11-12T01:59:23;13.80;99.90
11846;DHT22;5982;37.494;-8.758;2022-11-12T02:01:53;13.70;99.90
11846;DHT22;5982;37.494;-8.758;2022-11-12T02:04:22;13.60;99.90
11846;DHT22;5982;37.494;-8.758;2022-11-12T02:06:50;13.60;99.90
11846;DHT22;5982;37.494;-8.758;2022-11-12T02:09:18;13.60;99.90
11846;DHT22;5982;37.494;-8.758;2022-11-12T02:11:46;13.70;99.90
11846;DHT22;5982;37.494;-8.758;2022-11-12T02:14:13;13.70;99.90
11846;DHT22;5982;37.494;-8.758;2022-11-12T02:16:42;13.90;99.90
11846;DHT22;5982;37.494;-8.758;2022-11-12T02:19:12;14.00;99.90
11846;DHT22;5982;37.494;-8.758;2022-11-12T02:21:43;14.10;99.90
11846;DHT22;5982;37.494;-8.758;2022-11-12T02:26:58;14.40;99.90
11846;DHT22;5982;37.494;-8.758;2022-11-12T02:29:25;14.50;99.90
11846;DHT22;5982;37.494;-8.758;2022-11-12T02:31:53;14.50;99.90
11846;DHT22;5982;37.494;-8.758;2022-11-12T02:34:21;14.50;99.90
11846;DHT22;5982;37.494;-8.758;2022-11-12T02:36:50;14.60;99.90
11846;DHT22;5982;37.494;-8.758;2022-11-12T02:39:18;14.60;99.90
11846;DHT22;5982;37.494;-8.758;2022-11-12T02:41:46;14.60;99.90
11846;DHT22;5982;37.494;-8.758;2022-11-12T02:44:13;14.60;99.90
11846;DHT22;5982;37.494;-8.758;2022-11-12T02:46:41;14.60;99.90
11846;DHT22;5982;37.494;-8.758;2022-11-12T02:49:09;14.50;99.90
11846;DHT22;5982;37.494;-8.758;2022-11-12T02:51:37;14.50;99.90
11846;DHT22;5982;37.494;-8.758;2022-11-12T02:54:06;14.50;99.90
11846;DHT22;5982;37.494;-8.758;2022-11-12T02:56:34;14.50;99.90
11846;DHT22;5982;37.494;-8.758;2022-11-12T02:59:01;14.50;99.90
11846;DHT22;5982;37.494;-8.758;2022-11-12T03:01:29;14.50;99.90
11846;DHT22;5982;37.494;-8.758;2022-11-12T03:03:57;14.40;99.90
11846;DHT22;5982;37.494;-8.758;2022-11-12T03:06:25;14.50;99.90
11846;DHT22;5982;37.494;-8.758;2022-11-12T03:08:53;14.50;99.90
11846;DHT22;5982;37.494;-8.758;2022-11-12T03:11:22;14.60;99.90
11846;DHT22;5982;37.494;-8.758;2022-11-12T03:13:50;14.60;99.90
11846;DHT22;5982;37.494;-8.758;2022-11-12T03:16:17;14.60;99.90
11846;DHT22;5982;37.494;-8.758;2022-11-12T03:18:45;14.70;99.90
11846;DHT22;5982;37.494;-8.758;2022-11-12T03:21:13;14.80;99.90
11846;DHT22;5982;37.494;-8.758;2022-11-12T03:23:41;14.90;99.90
11846;DHT22;5982;37.494;-8.758;2022-11-12T03:26:08;15.00;99.90
11846;DHT22;5982;37.494;-8.758;2022-11-12T03:28:38;15.00;99.90
11846;DHT22;5982;37.494;-8.758;2022-11-12T03:31:05;15.20;99.90
11846;DHT22;5982;37.494;-8.758;2022-11-12T03:33:33;15.20;99.90
11846;DHT22;5982;37.494;-8.758;2022-11-12T03:36:01;15.30;99.90
11846;DHT22;5982;37.494;-8.758;2022-11-12T03:38:29;15.30;99.90
11846;DHT22;5982;37.494;-8.758;2022-11-12T03:40:56;15.30;99.90
11846;DHT22;5982;37.494;-8.758;2022-11-12T03:43:24;15.30;99.90
11846;DHT22;5982;37.494;-8.758;2022-11-12T03:45:53;15.30;99.90
11846;DHT22;5982;37.494;-8.758;2022-11-12T03:48:21;15.30;99.90
11846;DHT22;5982;37.494;-8.758;2022-11-12T03:50:49;15.30;99.90
11846;DHT22;5982;37.494;-8.758;2022-11-12T03:53:17;15.30;99.90
11846;DHT22;5982;37.494;-8.758;2022-11-12T03:55:44;15.30;99.90
11846;DHT22;5982;37.494;-8.758;2022-11-12T03:58:12;15.30;99.90
11846;DHT22;5982;37.494;-8.758;2022-11-12T04:00:40;15.30;99.90
11846;DHT22;5982;37.494;-8.758;2022-11-12T04:03:10;15.30;99.90
11846;DHT22;5982;37.494;-8.758;2022-11-12T04:05:37;15.30;99.90
11846;DHT22;5982;37.494;-8.758;2022-11-12T04:08:22;15.30;99.90
11846;DHT22;5982;37.494;-8.758;2022-11-12T04:11:03;15.40;99.90
11846;DHT22;5982;37.494;-8.758;2022-11-12T04:13:32;15.40;99.90
11846;DHT22;5982;37.494;-8.758;2022-11-12T04:16:03;15.30;99.90
11846;DHT22;5982;37.494;-8.758;2022-11-12T04:18:52;15.30;99.90
11846;DHT22;5982;37.494;-8.758;2022-11-12T04:21:38;15.30;99.90
11846;DHT22;5982;37.494;-8.758;2022-11-12T04:24:17;15.30;99.90
11846;DHT22;5982;37.494;-8.758;2022-11-12T04:27:02;15.30;99.90
11846;DHT22;5982;37.494;-8.758;2022-11-12T04:29:31;15.30;99.90
11846;DHT22;5982;37.494;-8.758;2022-11-12T04:32:15;15.40;99.90
11846;DHT22;5982;37.494;-8.758;2022-11-12T04:34:45;15.40;99.90
11846;DHT22;5982;37.494;-8.758;2022-11-12T04:37:15;15.50;99.90
11846;DHT22;5982;37.494;-8.758;2022-11-12T04:39:43;15.50;99.90
11846;DHT22;5982;37.494;-8.758;2022-11-12T04:42:11;15.50;99.90
11846;DHT22;5982;37.494;-8.758;2022-11-12T04:44:56;15.50;99.90
11846;DHT22;5982;37.494;-8.758;2022-11-12T04:47:31;15.50;99.90
11846;DHT22;5982;37.494;-8.758;2022-11-12T04:50:02;15.40;99.90
11846;DHT22;5982;37.494;-8.758;2022-11-12T04:52:31;15.40;99.90
11846;DHT22;5982;37.494;-8.758;2022-11-12T04:54:59;15.30;99.90
11846;DHT22;5982;37.494;-8.758;2022-11-12T04:57:27;15.30;99.90
11846;DHT22;5982;37.494;-8.758;2022-11-12T04:59:55;15.30;99.90
11846;DHT22;5982;37.494;-8.758;2022-11-12T05:02:22;15.40;99.90
11846;DHT22;5982;37.494;-8.758;2022-11-12T05:04:50;15.40;99.90
11846;DHT22;5982;37.494;-8.758;2022-11-12T05:07:19;15.40;99.90
11846;DHT22;5982;37.494;-8.758;2022-11-12T05:09:47;15.50;99.90
11846;DHT22;5982;37.494;-8.758;2022-11-12T05:12:15;15.50;99.90
11846;DHT22;5982;37.494;-8.758;2022-11-12T05:14:43;15.50;99.90
11846;DHT22;5982;37.494;-8.758;2022-11-12T05:17:11;15.50;99.90
11846;DHT22;5982;37.494;-8.758;2022-11-12T05:19:38;15.50;99.90
11846;DHT22;5982;37.494;-8.758;2022-11-12T05:22:07;15.50;99.90
11846;DHT22;5982;37.494;-8.758;2022-11-12T05:24:38;15.50;99.90
11846;DHT22;5982;37.494;-8.758;2022-11-12T05:27:08;15.40;99.90
11846;DHT22;5982;37.494;-8.758;2022-11-12T05:29:37;15.40;99.90
11846;DHT22;5982;37.494;-8.758;2022-11-12T05:32:05;15.30;99.90
11846;DHT22;5982;37.494;-8.758;2022-11-12T05:34:33;15.30;99.90
11846;DHT22;5982;37.494;-8.758;2022-11-12T05:37:02;15.20;99.90
11846;DHT22;5982;37.494;-8.758;2022-11-12T05:39:31;15.30;99.90
11846;DHT22;5982;37.494;-8.758;2022-11-12T05:42:00;15.30;99.90
11846;DHT22;5982;37.494;-8.758;2022-11-12T05:44:28;15.30;99.90
11846;DHT22;5982;37.494;-8.758;2022-11-12T05:46:56;15.30;99.90
11846;DHT22;5982;37.494;-8.758;2022-11-12T05:49:23;15.20;99.90
11846;DHT22;5982;37.494;-8.758;2022-11-12T05:51:51;15.20;99.90
11846;DHT22;5982;37.494;-8.758;2022-11-12T05:54:19;15.20;99.90
11846;DHT22;5982;37.494;-8.758;2022-11-12T05:56:50;15.20;99.90
11846;DHT22;5982;37.494;-8.758;2022-11-12T05:59:19;15.20;99.90
11846;DHT22;5982;37.494;-8.758;2022-11-12T06:01:47;15.10;99.90
11846;DHT22;5982;37.494;-8.758;2022-11-12T06:04:15;15.10;99.90
11846;DHT22;5982;37.494;-8.758;2022-11-12T06:06:43;15.00;99.90
11846;DHT22;5982;37.494;-8.758;2022-11-12T06:09:11;14.90;99.90
11846;DHT22;5982;37.494;-8.758;2022-11-12T06:11:38;14.80;99.90
11846;DHT22;5982;37.494;-8.758;2022-11-12T06:14:06;14.80;99.90
11846;DHT22;5982;37.494;-8.758;2022-11-12T06:16:35;14.70;99.90
11846;DHT22;5982;37.494;-8.758;2022-11-12T06:19:03;14.70;99.90
11846;DHT22;5982;37.494;-8.758;2022-11-12T06:21:31;14.60;99.90
11846;DHT22;5982;37.494;-8.758;2022-11-12T06:23:59;14.60;99.90
11846;DHT22;5982;37.494;-8.758;2022-11-12T06:26:27;14.70;99.90
11846;DHT22;5982;37.494;-8.758;2022-11-12T06:28:56;14.70;99.90
11846;DHT22;5982;37.494;-8.758;2022-11-12T06:31:24;14.70;99.90
11846;DHT22;5982;37.494;-8.758;2022-11-12T06:33:53;14.70;99.90
11846;DHT22;5982;37.494;-8.758;2022-11-12T06:36:21;14.70;99.90
11846;DHT22;5982;37.494;-8.758;2022-11-12T06:38:49;14.60;99.90
11846;DHT22;5982;37.494;-8.758;2022-11-12T06:41:17;14.50;99.90
11846;DHT22;5982;37.494;-8.758;2022-11-12T06:43:44;14.50;99.90
11846;DHT22;5982;37.494;-8.758;2022-11-12T06:46:13;14.50;99.90
11846;DHT22;5982;37.494;-8.758;2022-11-12T06:48:41;14.50;99.90
11846;DHT22;5982;37.494;-8.758;2022-11-12T06:51:14;14.40;99.90
11846;DHT22;5982;37.494;-8.758;2022-11-12T06:53:43;14.40;99.90
11846;DHT22;5982;37.494;-8.758;2022-11-12T06:56:11;14.40;99.90
11846;DHT22;5982;37.494;-8.758;2022-11-12T06:58:39;14.40;99.90
11846;DHT22;5982;37.494;-8.758;2022-11-12T07:01:08;14.40;99.90
11846;DHT22;5982;37.494;-8.758;2022-11-12T07:03:37;14.30;99.90
11846;DHT22;5982;37.494;-8.758;2022-11-12T07:06:07;14.30;99.90
11846;DHT22;5982;37.494;-8.758;2022-11-12T07:08:37;14.30;99.90
11846;DHT22;5982;37.494;-8.758;2022-11-12T07:11:05;14.30;99.90
11846;DHT22;5982;37.494;-8.758;2022-11-12T07:13:33;14.30;99.90
11846;DHT22;5982;37.494;-8.758;2022-11-12T07:16:02;14.30;99.90
11846;DHT22;5982;37.494;-8.758;2022-11-12T07:18:31;14.30;99.90
11846;DHT22;5982;37.494;-8.758;2022-11-12T07:21:00;14.30;99.90
11846;DHT22;5982;37.494;-8.758;2022-11-12T07:23:29;14.40;99.90
11846;DHT22;5982;37.494;-8.758;2022-11-12T07:26:00;14.40;99.90
11846;DHT22;5982;37.494;-8.758;2022-11-12T07:28:28;14.40;99.90
11846;DHT22;5982;37.494;-8.758;2022-11-12T07:30:57;14.60;99.90
11846;DHT22;5982;37.494;-8.758;2022-11-12T07:33:25;14.90;99.90
11846;DHT22;5982;37.494;-8.758;2022-11-12T07:35:57;15.20;99.90
11846;DHT22;5982;37.494;-8.758;2022-11-12T07:38:25;15.50;99.90
11846;DHT22;5982;37.494;-8.758;2022-11-12T07:40:57;15.80;99.90
11846;DHT22;5982;37.494;-8.758;2022-11-12T07:43:28;16.00;99.90
11846;DHT22;5982;37.494;-8.758;2022-11-12T07:45:58;16.30;99.90
11846;DHT22;5982;37.494;-8.758;2022-11-12T07:48:27;16.50;99.90
11846;DHT22;5982;37.494;-8.758;2022-11-12T07:50:58;16.80;99.90
11846;DHT22;5982;37.494;-8.758;2022-11-12T07:53:27;17.10;99.90
11846;DHT22;5982;37.494;-8.758;2022-11-12T07:55:55;17.40;99.90
11846;DHT22;5982;37.494;-8.758;2022-11-12T07:58:25;17.60;99.90
11846;DHT22;5982;37.494;-8.758;2022-11-12T08:00:54;17.70;99.90
11846;DHT22;5982;37.494;-8.758;2022-11-12T08:03:22;18.00;99.90
11846;DHT22;5982;37.494;-8.758;2022-11-12T08:05:50;17.90;99.90
11846;DHT22;5982;37.494;-8.758;2022-11-12T08:08:18;17.40;99.90
11846;DHT22;5982;37.494;-8.758;2022-11-12T08:10:46;17.00;99.90
11846;DHT22;5982;37.494;-8.758;2022-11-12T08:13:14;16.90;99.90
11846;DHT22;5982;37.494;-8.758;2022-11-12T08:15:43;17.00;99.90
11846;DHT22;5982;37.494;-8.758;2022-11-12T08:18:11;17.00;99.90
11846;DHT22;5982;37.494;-8.758;2022-11-12T08:20:39;17.10;99.90
11846;DHT22;5982;37.494;-8.758;2022-11-12T08:23:07;17.20;99.90
11846;DHT22;5982;37.494;-8.758;2022-11-12T08:25:36;17.40;99.90
11846;DHT22;5982;37.494;-8.758;2022-11-12T08:28:03;17.50;99.90
11846;DHT22;5982;37.494;-8.758;2022-11-12T08:30:31;17.70;99.90
11846;DHT22;5982;37.494;-8.758;2022-11-12T08:33:01;17.80;99.90
11846;DHT22;5982;37.494;-8.758;2022-11-12T08:35:30;18.00;99.90
11846;DHT22;5982;37.494;-8.758;2022-11-12T08:37:58;18.10;99.90
11846;DHT22;5982;37.494;-8.758;2022-11-12T08:40:27;18.20;99.90
11846;DHT22;5982;37.494;-8.758;2022-11-12T08:42:56;18.40;99.90
11846;DHT22;5982;37.494;-8.758;2022-11-12T08:45:24;18.60;99.90
11846;DHT22;5982;37.494;-8.758;2022-11-12T08:47:52;18.80;99.90
11846;DHT22;5982;37.494;-8.758;2022-11-12T08:50:26;18.90;99.90
11846;DHT22;5982;37.494;-8.758;2022-11-12T08:52:57;19.00;99.90
11846;DHT22;5982;37.494;-8.758;2022-11-12T08:55:26;19.20;99.90
11846;DHT22;5982;37.494;-8.758;2022-11-12T08:57:54;19.40;99.90
11846;DHT22;5982;37.494;-8.758;2022-11-12T09:00:26;19.50;99.90
11846;DHT22;5982;37.494;-8.758;2022-11-12T09:02:54;19.70;99.90
11846;DHT22;5982;37.494;-8.758;2022-11-12T09:05:22;19.80;99.90
11846;DHT22;5982;37.494;-8.758;2022-11-12T09:07:56;19.90;99.90
11846;DHT22;5982;37.494;-8.758;2022-11-12T09:10:24;20.00;99.90
11846;DHT22;5982;37.494;-8.758;2022-11-12T09:12:52;20.10;99.90
11846;DHT22;5982;37.494;-8.758;2022-11-12T09:15:20;20.20;99.90
11846;DHT22;5982;37.494;-8.758;2022-11-12T09:17:53;20.20;99.90
11846;DHT22;5982;37.494;-8.758;2022-11-12T09:20:21;20.20;99.90
11846;DHT22;5982;37.494;-8.758;2022-11-12T09:22:49;20.30;99.90
11846;DHT22;5982;37.494;-8.758;2022-11-12T09:25:18;20.40;99.90
11846;DHT22;5982;37.494;-8.758;2022-11-12T09:27:46;20.40;99.90
11846;DHT22;5982;37.494;-8.758;2022-11-12T09:30:14;20.40;99.90
11846;DHT22;5982;37.494;-8.758;2022-11-12T09:32:42;20.50;99.90
11846;DHT22;5982;37.494;-8.758;2022-11-12T09:35:10;20.60;99.90
11846;DHT22;5982;37.494;-8.758;2022-11-12T09:37:38;20.70;99.90
11846;DHT22;5982;37.494;-8.758;2022-11-12T09:40:06;20.80;99.90
11846;DHT22;5982;37.494;-8.758;2022-11-12T09:42:38;20.90;99.90
11846;DHT22;5982;37.494;-8.758;2022-11-12T09:45:06;21.10;99.90
11846;DHT22;5982;37.494;-8.758;2022-11-12T09:47:39;21.30;99.90
11846;DHT22;5982;37.494;-8.758;2022-11-12T09:50:14;21.40;99.90
11846;DHT22;5982;37.494;-8.758;2022-11-12T09:52:45;21.50;99.90
11846;DHT22;5982;37.494;-8.758;2022-11-12T09:55:17;21.60;99.90
11846;DHT22;5982;37.494;-8.758;2022-11-12T09:57:50;21.70;99.90
11846;DHT22;5982;37.494;-8.758;2022-11-12T10:00:18;21.80;99.90
11846;DHT22;5982;37.494;-8.758;2022-11-12T10:02:49;21.90;99.90
11846;DHT22;5982;37.494;-8.758;2022-11-12T10:05:22;22.00;99.90
11846;DHT22;5982;37.494;-8.758;2022-11-12T10:07:55;22.00;99.90
11846;DHT22;5982;37.494;-8.758;2022-11-12T10:10:33;21.90;99.90
11846;DHT22;5982;37.494;-8.758;2022-11-12T10:13:11;21.90;99.90
11846;DHT22;5982;37.494;-8.758;2022-11-12T10:15:48;21.90;99.90
11846;DHT22;5982;37.494;-8.758;2022-11-12T10:18:46;22.00;99.90
11846;DHT22;5982;37.494;-8.758;2022-11-12T10:21:22;22.00;99.90
11846;DHT22;5982;37.494;-8.758;2022-11-12T10:23:56;21.90;99.90
11846;DHT22;5982;37.494;-8.758;2022-11-12T10:26:24;21.90;99.90
11846;DHT22;5982;37.494;-8.758;2022-11-12T10:28:56;22.00;99.90
11846;DHT22;5982;37.494;-8.758;2022-11-12T10:31:28;22.10;99.90
11846;DHT22;5982;37.494;-8.758;2022-11-12T10:34:01;22.10;99.90
11846;DHT22;5982;37.494;-8.758;2022-11-12T10:36:45;22.20;99.90
11846;DHT22;5982;37.494;-8.758;2022-11-12T10:39:33;22.20;99.90
11846;DHT22;5982;37.494;-8.758;2022-11-12T10:42:03;22.20;99.90
11846;DHT22;5982;37.494;-8.758;2022-11-12T10:44:33;22.20;99.90
11846;DHT22;5982;37.494;-8.758;2022-11-12T10:52:34;22.20;99.90
11846;DHT22;5982;37.494;-8.758;2022-11-12T10:55:04;22.30;99.90
11846;DHT22;5982;37.494;-8.758;2022-11-12T10:57:33;22.30;99.90
11846;DHT22;5982;37.494;-8.758;2022-11-12T11:00:13;22.40;99.90
11846;DHT22;5982;37.494;-8.758;2022-11-12T11:02:47;22.50;99.90
11846;DHT22;5982;37.494;-8.758;2022-11-12T11:05:24;22.50;99.90
11846;DHT22;5982;37.494;-8.758;2022-11-12T11:07:55;22.60;99.90
11846;DHT22;5982;37.494;-8.758;2022-11-12T11:10:24;22.70;99.90
11846;DHT22;5982;37.494;-8.758;2022-11-12T11:15:56;22.80;99.90
11846;DHT22;5982;37.494;-8.758;2022-11-12T11:18:26;22.90;99.90
11846;DHT22;5982;37.494;-8.758;2022-11-12T11:20:56;22.80;99.90
11846;DHT22;5982;37.494;-8.758;2022-11-12T11:23:29;22.90;99.90
11846;DHT22;5982;37.494;-8.758;2022-11-12T11:26:00;22.80;99.90
11846;DHT22;5982;37.494;-8.758;2022-11-12T11:28:40;22.90;99.90
11846;DHT22;5982;37.494;-8.758;2022-11-12T11:31:15;22.90;99.90
11846;DHT22;5982;37.494;-8.758;2022-11-12T11:33:47;23.00;99.90
11846;DHT22;5982;37.494;-8.758;2022-11-12T11:36:21;22.90;99.90
11846;DHT22;5982;37.494;-8.758;2022-11-12T11:38:55;22.90;99.90
11846;DHT22;5982;37.494;-8.758;2022-11-12T11:41:38;22.90;99.90
11846;DHT22;5982;37.494;-8.758;2022-11-12T11:44:15;23.00;99.90
11846;DHT22;5982;37.494;-8.758;2022-11-12T11:46:52;23.00;99.90
11846;DHT22;5982;37.494;-8.758;2022-11-12T11:49:36;23.00;99.90
11846;DHT22;5982;37.494;-8.758;2022-11-12T11:52:28;23.10;99.90
11846;DHT22;5982;37.494;-8.758;2022-11-12T11:55:08;23.00;99.90
11846;DHT22;5982;37.494;-8.758;2022-11-12T11:57:46;23.10;99.90
11846;DHT22;5982;37.494;-8.758;2022-11-12T12:00:20;23.10;99.90
11846;DHT22;5982;37.494;-8.758;2022-11-12T12:02:53;23.20;99.90
11846;DHT22;5982;37.494;-8.758;2022-11-12T12:05:37;23.20;99.90
11846;DHT22;5982;37.494;-8.758;2022-11-12T12:08:08;23.30;99.90
11846;DHT22;5982;37.494;-8.758;2022-11-12T12:10:41;23.40;99.90
11846;DHT22;5982;37.494;-8.758;2022-11-12T12:13:15;23.40;99.90
11846;DHT22;5982;37.494;-8.758;2022-11-12T12:15:51;23.40;99.90
11846;DHT22;5982;37.494;-8.758;2022-11-12T12:18:32;23.40;99.90
11846;DHT22;5982;37.494;-8.758;2022-11-12T12:21:05;23.50;99.90
11846;DHT22;5982;37.494;-8.758;2022-11-12T12:23:39;23.50;99.90
11846;DHT22;5982;37.494;-8.758;2022-11-12T12:26:10;23.60;99.90
11846;DHT22;5982;37.494;-8.758;2022-11-12T12:28:41;23.70;99.90
11846;DHT22;5982;37.494;-8.758;2022-11-12T12:31:12;23.70;99.90
11846;DHT22;5982;37.494;-8.758;2022-11-12T12:33:44;23.70;99.90
11846;DHT22;5982;37.494;-8.758;2022-11-12T12:36:16;23.70;99.90
11846;DHT22;5982;37.494;-8.758;2022-11-12T12:38:45;23.70;99.90
11846;DHT22;5982;37.494;-8.758;2022-11-12T12:41:17;23.70;99.90
11846;DHT22;5982;37.494;-8.758;2022-11-12T12:43:53;23.70;99.90
11846;DHT22;5982;37.494;-8.758;2022-11-12T12:46:24;23.60;99.90
11846;DHT22;5982;37.494;-8.758;2022-11-12T12:48:56;23.60;99.90
11846;DHT22;5982;37.494;-8.758;2022-11-12T12:51:26;23.60;99.90
11846;DHT22;5982;37.494;-8.758;2022-11-12T12:53:56;23.60;99.90
11846;DHT22;5982;37.494;-8.758;2022-11-12T12:56:42;23.60;99.90
11846;DHT22;5982;37.494;-8.758;2022-11-12T12:59:19;23.50;99.90
11846;DHT22;5982;37.494;-8.758;2022-11-12T13:01:52;23.50;99.90
11846;DHT22;5982;37.494;-8.758;2022-11-12T13:07:17;23.50;99.90
11846;DHT22;5982;37.494;-8.758;2022-11-12T13:09:47;23.50;99.90
11846;DHT22;5982;37.494;-8.758;2022-11-12T13:12:15;23.50;99.90
11846;DHT22;5982;37.494;-8.758;2022-11-12T13:14:51;23.50;99.90
11846;DHT22;5982;37.494;-8.758;2022-11-12T13:17:46;23.50;99.90
11846;DHT22;5982;37.494;-8.758;2022-11-12T13:23:10;23.30;99.90
11846;DHT22;5982;37.494;-8.758;2022-11-12T13:25:53;23.30;99.90
11846;DHT22;5982;37.494;-8.758;2022-11-12T13:29:20;23.30;99.90
11846;DHT22;5982;37.494;-8.758;2022-11-12T13:35:20;23.30;99.90
11846;DHT22;5982;37.494;-8.758;2022-11-12T13:37:54;23.20;99.90
11846;DHT22;5982;37.494;-8.758;2022-11-12T13:40:25;23.20;99.90
11846;DHT22;5982;37.494;-8.758;2022-11-12T13:43:08;23.00;99.90
11846;DHT22;5982;37.494;-8.758;2022-11-12T13:45:45;22.90;99.90
11846;DHT22;5982;37.494;-8.758;2022-11-12T13:48:16;22.60;99.90
11846;DHT22;5982;37.494;-8.758;2022-11-12T13:50:48;22.50;99.90
11846;DHT22;5982;37.494;-8.758;2022-11-12T13:53:21;22.60;99.90
11846;DHT22;5982;37.494;-8.758;2022-11-12T13:55:50;22.70;99.90
11846;DHT22;5982;37.494;-8.758;2022-11-12T13:58:23;22.90;99.90
11846;DHT22;5982;37.494;-8.758;2022-11-12T14:00:53;22.90;99.90
11846;DHT22;5982;37.494;-8.758;2022-11-12T14:03:22;22.90;99.90
11846;DHT22;5982;37.494;-8.758;2022-11-12T14:05:52;22.70;99.90
11846;DHT22;5982;37.494;-8.758;2022-11-12T14:08:30;22.50;99.90
11846;DHT22;5982;37.494;-8.758;2022-11-12T14:11:21;22.70;99.90
11846;DHT22;5982;37.494;-8.758;2022-11-12T14:14:11;22.70;99.90
11846;DHT22;5982;37.494;-8.758;2022-11-12T14:16:48;22.80;99.90
11846;DHT22;5982;37.494;-8.758;2022-11-12T14:19:39;22.80;99.90
11846;DHT22;5982;37.494;-8.758;2022-11-12T14:22:35;22.80;99.90
11846;DHT22;5982;37.494;-8.758;2022-11-12T14:25:11;22.80;99.90
11846;DHT22;5982;37.494;-8.758;2022-11-12T14:27:42;22.70;99.90
11846;DHT22;5982;37.494;-8.758;2022-11-12T14:30:15;22.60;99.90
11846;DHT22;5982;37.494;-8.758;2022-11-12T14:32:45;22.60;99.90
11846;DHT22;5982;37.494;-8.758;2022-11-12T14:38:05;22.60;99.90
11846;DHT22;5982;37.494;-8.758;2022-11-12T14:40:41;22.70;99.90
11846;DHT22;5982;37.494;-8.758;2022-11-12T14:43:23;22.50;99.90
11846;DHT22;5982;37.494;-8.758;2022-11-12T14:45:53;22.30;99.90
11846;DHT22;5982;37.494;-8.758;2022-11-12T14:48:21;22.30;99.90
11846;DHT22;5982;37.494;-8.758;2022-11-12T14:50:50;22.20;99.90
11846;DHT22;5982;37.494;-8.758;2022-11-12T14:53:24;22.30;99.90
11846;DHT22;5982;37.494;-8.758;2022-11-12T14:55:55;22.20;99.90
11846;DHT22;5982;37.494;-8.758;2022-11-12T14:58:23;22.20;99.90
11846;DHT22;5982;37.494;-8.758;2022-11-12T15:00:53;22.30;99.90
11846;DHT22;5982;37.494;-8.758;2022-11-12T15:03:22;22.30;99.90
11846;DHT22;5982;37.494;-8.758;2022-11-12T15:05:51;22.20;99.90
11846;DHT22;5982;37.494;-8.758;2022-11-12T15:08:27;22.30;99.90
11846;DHT22;5982;37.494;-8.758;2022-11-12T15:11:01;22.40;99.90
11846;DHT22;5982;37.494;-8.758;2022-11-12T15:13:48;22.40;99.90
11846;DHT22;5982;37.494;-8.758;2022-11-12T15:16:17;22.40;99.90
11846;DHT22;5982;37.494;-8.758;2022-11-12T15:18:58;22.40;99.90
11846;DHT22;5982;37.494;-8.758;2022-11-12T15:21:43;22.50;99.90
11846;DHT22;5982;37.494;-8.758;2022-11-12T15:24:15;22.50;99.90
11846;DHT22;5982;37.494;-8.758;2022-11-12T15:26:47;22.50;99.90
11846;DHT22;5982;37.494;-8.758;2022-11-12T15:29:26;22.60;99.90
11846;DHT22;5982;37.494;-8.758;2022-11-12T15:31:56;22.60;99.90
11846;DHT22;5982;37.494;-8.758;2022-11-12T15:34:30;22.60;99.90
11846;DHT22;5982;37.494;-8.758;2022-11-12T15:37:01;22.50;99.90
11846;DHT22;5982;37.494;-8.758;2022-11-12T15:39:31;22.40;99.90
11846;DHT22;5982;37.494;-8.758;2022-11-12T15:42:11;22.30;99.90
11846;DHT22;5982;37.494;-8.758;2022-11-12T15:44:41;22.10;99.90
11846;DHT22;5982;37.494;-8.758;2022-11-12T15:47:17;22.00;99.90
11846;DHT22;5982;37.494;-8.758;2022-11-12T15:49:49;21.90;99.90
11846;DHT22;5982;37.494;-8.758;2022-11-12T15:52:17;21.80;99.90
11846;DHT22;5982;37.494;-8.758;2022-11-12T15:54:45;21.60;99.90
11846;DHT22;5982;37.494;-8.758;2022-11-12T15:57:15;21.40;99.90
11846;DHT22;5982;37.494;-8.758;2022-11-12T15:59:44;21.30;99.90
11846;DHT22;5982;37.494;-8.758;2022-11-12T16:02:18;21.20;99.90
11846;DHT22;5982;37.494;-8.758;2022-11-12T16:04:46;21.20;99.90
11846;DHT22;5982;37.494;-8.758;2022-11-12T16:07:14;21.10;99.90
11846;DHT22;5982;37.494;-8.758;2022-11-12T16:09:42;21.00;99.90
11846;DHT22;5982;37.494;-8.758;2022-11-12T16:12:09;20.90;99.90
11846;DHT22;5982;37.494;-8.758;2022-11-12T16:14:39;20.80;99.90
11846;DHT22;5982;37.494;-8.758;2022-11-12T16:17:09;20.70;99.90